createdAt,value
2018-02-17T00:02:10.815Z,64.61
2018-02-17T00:04:39.285Z,64.93
2018-02-17T00:07:07.795Z,64.68
2018-02-17T00:09:36.334Z,64.09
2018-02-17T00:12:04.849Z,64.83
2018-02-17T00:14:33.354Z,65.23
2018-02-17T00:17:01.818Z,65.33
2018-02-17T00:19:30.314Z,66.29
2018-02-17T00:21:58.794Z,66.28
2018-02-17T00:24:27.318Z,65.01
2018-02-17T00:26:55.802Z,64.63
2018-02-17T00:29:24.381Z,64.40
2018-02-17T00:31:52.844Z,64.65
2018-02-17T00:34:21.322Z,63.91
2018-02-17T00:36:49.835Z,63.63
2018-02-17T00:39:18.299Z,63.58
2018-02-17T00:41:46.820Z,63.34
2018-02-17T00:44:15.291Z,63.28
2018-02-17T00:46:43.795Z,63.33
2018-02-17T00:49:12.282Z,63.29
2018-02-17T00:51:40.808Z,63.38
2018-02-17T00:54:09.314Z,63.64
2018-02-17T00:56:37.785Z,63.19
2018-02-17T00:59:06.302Z,64.35
2018-02-17T01:01:34.805Z,63.72
2018-02-17T01:04:03.331Z,63.21
2018-02-17T01:06:31.806Z,63.12
2018-02-17T01:09:00.306Z,63.41
2018-02-17T01:11:28.787Z,63.53
2018-02-17T01:13:57.310Z,63.30
2018-02-17T01:16:25.813Z,63.15
2018-02-17T01:18:54.290Z,65.77
2018-02-17T01:21:22.798Z,67.59
2018-02-17T01:23:51.268Z,68.09
2018-02-17T01:26:19.798Z,68.31
2018-02-17T01:28:48.275Z,66.33
2018-02-17T01:31:16.789Z,67.08
2018-02-17T01:33:45.250Z,66.02
2018-02-17T01:36:13.726Z,65.48
2018-02-17T01:38:42.242Z,65.09
2018-02-17T01:41:10.715Z,65.05
2018-02-17T01:43:39.210Z,65.43
2018-02-17T01:46:07.682Z,64.72
2018-02-17T01:48:36.209Z,64.81
2018-02-17T01:51:04.678Z,67.98
2018-02-17T01:53:33.166Z,65.96
2018-02-17T01:56:01.701Z,65.09
2018-02-17T01:58:30.228Z,64.66
2018-02-17T02:00:58.761Z,64.63
2018-02-17T02:03:27.261Z,65.50
2018-02-17T02:05:55.722Z,65.09
2018-02-17T02:08:24.251Z,65.34
2018-02-17T02:10:52.727Z,65.60
2018-02-17T02:13:21.225Z,64.62
2018-02-17T02:15:49.730Z,64.92
2018-02-17T02:18:18.179Z,66.85
2018-02-17T02:20:46.694Z,66.87
2018-02-17T02:23:15.159Z,68.11
2018-02-17T02:25:43.679Z,67.02
2018-02-17T02:28:12.178Z,68.47
2018-02-17T02:30:40.628Z,66.71
2018-02-17T02:33:09.146Z,67.09
2018-02-17T02:35:37.630Z,66.99
2018-02-17T02:38:06.098Z,69.75
2018-02-17T02:40:34.603Z,67.72
2018-02-17T02:43:03.107Z,67.88
2018-02-17T02:45:31.599Z,67.56
2018-02-17T02:48:00.082Z,68.06
2018-02-17T02:50:28.546Z,69.25
2018-02-17T02:52:57.046Z,68.66
2018-02-17T02:55:25.574Z,70.04
2018-02-17T02:57:54.042Z,72.44
2018-02-17T03:00:22.543Z,72.71
2018-02-17T03:02:51.010Z,73.06
2018-02-17T03:05:19.569Z,70.94
2018-02-17T03:07:48.074Z,70.02
2018-02-17T03:10:16.588Z,69.04
2018-02-17T03:12:45.063Z,68.93
2018-02-17T03:15:13.601Z,69.72
2018-02-17T03:17:42.094Z,70.60
2018-02-17T03:20:10.622Z,71.19
2018-02-17T03:22:39.086Z,70.05
2018-02-17T03:25:07.561Z,68.81
2018-02-17T03:27:36.087Z,68.87
2018-02-17T03:30:04.583Z,68.04
2018-02-17T03:32:33.116Z,67.80
2018-02-17T03:35:01.635Z,67.74
2018-02-17T03:37:30.138Z,67.22
2018-02-17T03:39:58.620Z,69.50
2018-02-17T03:42:27.114Z,69.13
2018-02-17T03:44:55.559Z,68.57
2018-02-17T03:47:24.111Z,68.94
2018-02-17T03:49:52.580Z,68.28
2018-02-17T03:52:21.075Z,69.58
2018-02-17T03:54:49.607Z,69.12
2018-02-17T03:57:18.150Z,68.88
2018-02-17T03:59:46.641Z,69.56
2018-02-17T04:02:15.154Z,69.52
2018-02-17T04:04:43.645Z,70.73
2018-02-17T04:07:12.169Z,70.21
2018-02-17T04:09:40.641Z,70.85
2018-02-17T04:12:09.102Z,70.89
2018-02-17T04:14:37.601Z,71.84
2018-02-17T04:17:06.098Z,71.60
2018-02-17T04:19:34.614Z,70.12
2018-02-17T04:22:03.121Z,69.75
2018-02-17T04:24:31.618Z,69.93
2018-02-17T04:27:00.115Z,69.27
2018-02-17T04:29:28.642Z,69.87
2018-02-17T04:31:57.137Z,69.86
2018-02-17T04:34:25.603Z,69.08
2018-02-17T04:36:54.187Z,69.19
2018-02-17T04:39:22.773Z,70.98
2018-02-17T04:41:51.821Z,69.60
2018-02-17T04:44:22.144Z,68.60
2018-02-17T04:46:56.603Z,68.04
2018-02-17T04:49:25.142Z,67.84
2018-02-17T04:52:08.489Z,67.09
2018-02-17T04:54:44.436Z,67.31
2018-02-17T04:57:13.711Z,66.93
2018-02-17T05:02:47.201Z,66.16
2018-02-17T05:05:15.693Z,66.01
2018-02-17T05:07:45.192Z,66.05
2018-02-17T05:10:13.718Z,66.07
2018-02-17T05:12:42.235Z,66.16
2018-02-17T05:15:19.198Z,66.23
2018-02-17T05:20:53.714Z,66.10
2018-02-17T05:23:27.541Z,66.15
2018-02-17T05:25:58.954Z,66.88
2018-02-17T05:31:30.785Z,67.85
2018-02-17T05:33:59.398Z,67.88
2018-02-17T05:36:31.555Z,67.35
2018-02-17T05:39:00.463Z,68.32
2018-02-17T05:41:29.002Z,67.45
2018-02-17T05:43:57.506Z,67.66
2018-02-17T05:46:28.583Z,67.39
2018-02-17T05:48:57.048Z,66.94
2018-02-17T05:51:25.637Z,66.85
2018-02-17T05:53:54.097Z,66.93
2018-02-17T05:56:22.566Z,66.86
2018-02-17T05:58:51.078Z,67.21
2018-02-17T06:01:19.542Z,67.05
2018-02-17T06:03:48.046Z,67.49
2018-02-17T06:06:16.560Z,67.47
2018-02-17T06:08:45.057Z,68.05
2018-02-17T06:11:13.595Z,68.08
2018-02-17T06:13:42.111Z,67.67
2018-02-17T06:16:10.611Z,67.81
2018-02-17T06:18:39.087Z,67.97
2018-02-17T06:21:07.594Z,67.73
2018-02-17T06:23:36.098Z,67.29
2018-02-17T06:26:04.602Z,66.15
2018-02-17T06:28:33.078Z,66.68
2018-02-17T06:31:01.585Z,66.62
2018-02-17T06:33:30.099Z,65.90
2018-02-17T06:35:58.601Z,65.98
2018-02-17T06:38:27.113Z,65.59
2018-02-17T06:40:55.619Z,64.23
2018-02-17T06:43:24.134Z,65.30
2018-02-17T06:45:52.619Z,65.01
2018-02-17T06:48:21.136Z,64.67
2018-02-17T06:50:49.642Z,64.78
2018-02-17T06:53:18.152Z,64.74
2018-02-17T06:55:46.662Z,64.75
2018-02-17T06:58:15.163Z,63.87
2018-02-17T07:00:43.673Z,64.42
2018-02-17T07:03:12.178Z,64.16
2018-02-17T07:05:40.674Z,62.79
2018-02-17T07:08:09.119Z,62.62
2018-02-17T07:10:37.617Z,62.83
2018-02-17T07:13:06.128Z,62.86
2018-02-17T07:15:34.591Z,62.14
2018-02-17T07:18:03.092Z,61.73
2018-02-17T07:20:31.545Z,60.39
2018-02-17T07:23:00.064Z,61.64
2018-02-17T07:25:28.554Z,61.37
2018-02-17T07:27:57.029Z,60.57
2018-02-17T07:30:25.529Z,60.50
2018-02-17T07:32:54.014Z,60.77
2018-02-17T07:35:22.474Z,60.35
2018-02-17T07:37:50.939Z,59.87
2018-02-17T07:40:19.502Z,59.19
2018-02-17T07:42:47.932Z,59.65
2018-02-17T07:45:16.399Z,58.64
2018-02-17T07:47:44.906Z,59.18
2018-02-17T07:50:13.405Z,58.41
2018-02-17T07:52:41.870Z,58.07
2018-02-17T07:55:10.376Z,58.35
2018-02-17T07:57:38.834Z,58.62
2018-02-17T08:00:07.314Z,59.19
2018-02-17T08:02:35.830Z,59.25
2018-02-17T08:05:04.413Z,59.75
2018-02-17T08:07:32.878Z,59.69
2018-02-17T08:10:01.353Z,60.89
2018-02-17T08:12:29.853Z,60.87
2018-02-17T08:14:58.331Z,61.33
2018-02-17T08:17:26.812Z,60.54
2018-02-17T08:19:55.333Z,60.10
2018-02-17T08:22:23.840Z,60.19
2018-02-17T08:24:52.310Z,61.69
2018-02-17T08:27:20.810Z,63.05
2018-02-17T08:29:49.274Z,62.05
2018-02-17T08:32:17.781Z,61.81
2018-02-17T08:34:46.260Z,63.11
2018-02-17T08:37:14.759Z,62.79
2018-02-17T08:39:43.250Z,63.38
2018-02-17T08:42:11.766Z,63.25
2018-02-17T08:44:40.226Z,63.98
2018-02-17T08:47:08.737Z,65.13
2018-02-17T08:49:37.220Z,65.85
2018-02-17T08:52:05.773Z,65.09
2018-02-17T08:54:34.286Z,63.99
2018-02-17T08:57:02.795Z,63.31
2018-02-17T08:59:31.254Z,63.85
2018-02-17T09:01:59.750Z,65.02
2018-02-17T09:04:28.214Z,64.34
2018-02-17T09:06:56.723Z,63.77
2018-02-17T09:09:25.181Z,62.71
2018-02-17T09:11:53.706Z,61.89
2018-02-17T09:14:22.198Z,61.61
2018-02-17T09:16:50.666Z,62.04
2018-02-17T09:19:19.166Z,61.33
2018-02-17T09:21:47.671Z,61.22
2018-02-17T09:24:16.152Z,60.95
2018-02-17T09:26:44.654Z,60.13
2018-02-17T09:29:13.122Z,60.32
2018-02-17T09:31:41.626Z,59.50
2018-02-17T09:34:10.086Z,59.44
2018-02-17T09:36:38.555Z,59.40
2018-02-17T09:39:07.107Z,59.65
2018-02-17T09:41:35.566Z,59.81
2018-02-17T09:44:04.064Z,61.11
2018-02-17T09:46:32.542Z,60.55
2018-02-17T09:49:00.999Z,60.96
2018-02-17T09:51:29.530Z,60.52
2018-02-17T09:53:58.078Z,61.44
2018-02-17T09:56:26.538Z,62.97
2018-02-17T09:58:54.997Z,62.15
2018-02-17T10:01:24.296Z,62.64
2018-02-17T10:03:52.767Z,62.42
2018-02-17T10:06:21.245Z,61.58
2018-02-17T10:08:49.750Z,61.51
2018-02-17T10:11:18.224Z,62.68
2018-02-17T10:13:46.722Z,63.65
2018-02-17T10:16:15.187Z,62.68
2018-02-17T10:18:43.683Z,63.49
2018-02-17T10:21:12.161Z,62.97
2018-02-17T10:23:40.682Z,63.03
2018-02-17T10:26:09.154Z,64.29
2018-02-17T10:28:37.678Z,64.55
2018-02-17T10:31:06.213Z,64.37
2018-02-17T10:33:34.683Z,64.09
2018-02-17T10:36:03.150Z,63.81
2018-02-17T10:38:31.658Z,63.17
2018-02-17T10:41:00.158Z,63.75
2018-02-17T10:43:28.624Z,63.36
2018-02-17T10:45:57.130Z,63.54
2018-02-17T10:48:25.602Z,63.55
2018-02-17T10:50:54.110Z,63.82
2018-02-17T10:53:22.620Z,63.54
2018-02-17T10:55:51.086Z,63.61
2018-02-17T10:58:19.550Z,63.18
2018-02-17T11:00:48.058Z,63.56
2018-02-17T11:03:16.542Z,63.51
2018-02-17T11:05:45.020Z,63.24
2018-02-17T11:08:13.519Z,62.94
2018-02-17T11:10:41.995Z,63.15
2018-02-17T11:13:10.494Z,62.98
2018-02-17T11:15:38.964Z,63.29
2018-02-17T11:18:07.465Z,63.75
2018-02-17T11:20:35.929Z,62.78
2018-02-17T11:23:04.465Z,62.74
2018-02-17T11:25:32.938Z,63.02
2018-02-17T11:28:01.420Z,62.31
2018-02-17T11:30:29.935Z,61.85
2018-02-17T11:32:58.398Z,62.09
2018-02-17T11:35:26.858Z,61.77
2018-02-17T11:37:55.358Z,61.40
2018-02-17T11:40:23.870Z,60.97
2018-02-17T11:42:52.335Z,61.39
2018-02-17T11:45:20.850Z,61.46
2018-02-17T11:47:49.318Z,61.17
2018-02-17T11:50:17.792Z,61.23
2018-02-17T11:52:46.324Z,60.96
2018-02-17T11:55:14.810Z,61.87
2018-02-17T11:57:43.342Z,62.95
2018-02-17T12:00:11.810Z,63.00
2018-02-17T12:02:40.318Z,62.96
2018-02-17T12:05:08.783Z,62.31
2018-02-17T12:07:37.290Z,63.08
2018-02-17T12:10:05.794Z,63.29
2018-02-17T12:12:34.326Z,63.69
2018-02-17T12:15:02.853Z,63.09
2018-02-17T12:17:31.319Z,63.34
2018-02-17T12:19:59.836Z,62.90
2018-02-17T12:22:28.351Z,62.16
2018-02-17T12:24:56.814Z,61.73
2018-02-17T12:27:25.275Z,60.99
2018-02-17T12:29:53.774Z,60.63
2018-02-17T12:32:22.248Z,60.83
2018-02-17T12:34:50.754Z,60.93
2018-02-17T12:37:19.262Z,60.98
2018-02-17T12:39:47.797Z,60.78
2018-02-17T12:42:16.265Z,60.56
2018-02-17T12:44:44.762Z,60.25
2018-02-17T12:47:13.266Z,59.50
2018-02-17T12:49:41.729Z,59.01
2018-02-17T12:52:10.195Z,59.05
2018-02-17T12:54:38.694Z,59.07
2018-02-17T12:57:07.143Z,59.20
2018-02-17T12:59:35.635Z,59.12
2018-02-17T13:02:04.102Z,57.87
2018-02-17T13:04:32.580Z,57.95
2018-02-17T13:07:01.078Z,58.86
2018-02-17T13:09:29.576Z,59.01
2018-02-17T13:11:58.049Z,58.87
2018-02-17T13:14:26.556Z,58.47
2018-02-17T13:16:55.139Z,58.85
2018-02-17T13:19:23.618Z,58.86
2018-02-17T13:21:52.085Z,58.36
2018-02-17T13:24:20.554Z,58.55
2018-02-17T13:26:49.061Z,57.34
2018-02-17T13:29:17.531Z,56.77
2018-02-17T13:31:46.059Z,55.53
2018-02-17T13:34:14.526Z,54.74
2018-02-17T13:36:43.038Z,55.17
2018-02-17T13:39:11.502Z,54.68
2018-02-17T13:41:40.007Z,53.93
2018-02-17T13:44:08.521Z,53.75
2018-02-17T13:46:37.002Z,53.73
2018-02-17T13:49:05.510Z,54.31
2018-02-17T13:51:33.978Z,53.81
2018-02-17T13:54:02.478Z,53.81
2018-02-17T13:56:30.959Z,53.75
2018-02-17T13:58:59.478Z,54.28
2018-02-17T14:01:27.975Z,54.04
2018-02-17T14:03:56.450Z,53.60
2018-02-17T14:06:25.003Z,53.34
2018-02-17T14:08:53.488Z,53.41
2018-02-17T14:11:22.002Z,53.30
2018-02-17T14:13:50.474Z,53.66
2018-02-17T14:16:18.954Z,53.75
2018-02-17T14:18:47.474Z,53.72
2018-02-17T14:21:16.006Z,53.73
2018-02-17T14:23:44.483Z,54.08
2018-02-17T14:26:12.953Z,53.95
2018-02-17T14:28:41.437Z,53.71
2018-02-17T14:31:09.906Z,54.19
2018-02-17T14:33:38.401Z,54.07
2018-02-17T14:36:06.870Z,53.90
2018-02-17T14:38:35.390Z,54.05
2018-02-17T14:41:03.898Z,53.94
2018-02-17T14:43:32.407Z,54.16
2018-02-17T14:46:00.911Z,54.07
2018-02-17T14:48:29.387Z,54.11
2018-02-17T14:50:57.901Z,53.84
2018-02-17T14:53:26.370Z,53.97
2018-02-17T14:55:54.838Z,54.16
2018-02-17T14:58:23.372Z,54.20
2018-02-17T15:00:51.884Z,54.24
2018-02-17T15:03:20.403Z,54.50
2018-02-17T15:05:48.902Z,54.83
2018-02-17T15:08:17.406Z,54.93
2018-02-17T15:10:45.887Z,55.06
2018-02-17T15:13:14.386Z,55.11
2018-02-17T15:15:42.896Z,55.27
2018-02-17T15:18:11.392Z,55.17
2018-02-17T15:20:39.900Z,55.21
2018-02-17T15:23:08.376Z,55.47
2018-02-17T15:25:36.874Z,55.39
2018-02-17T15:28:05.330Z,55.58
2018-02-17T15:30:33.843Z,55.81
2018-02-17T15:33:02.306Z,55.92
2018-02-17T15:35:30.778Z,56.13
2018-02-17T15:37:59.359Z,56.32
2018-02-17T15:40:27.934Z,56.37
2018-02-17T15:42:56.398Z,57.06
2018-02-17T15:45:24.881Z,56.85
2018-02-17T15:47:53.379Z,56.81
2018-02-17T15:50:21.887Z,57.84
2018-02-17T15:52:50.385Z,58.69
2018-02-17T15:55:18.862Z,59.11
2018-02-17T15:57:47.369Z,58.67
2018-02-17T16:00:15.830Z,58.28
2018-02-17T16:02:44.333Z,59.06
2018-02-17T16:05:12.791Z,59.70
2018-02-17T16:07:41.303Z,59.50
2018-02-17T16:10:09.808Z,59.72
2018-02-17T16:12:38.312Z,60.76
2018-02-17T16:15:06.811Z,60.08
2018-02-17T16:17:35.278Z,60.77
2018-02-17T16:20:03.846Z,60.21
2018-02-17T16:22:32.334Z,60.35
2018-02-17T16:25:00.823Z,60.52
2018-02-17T16:27:29.330Z,60.60
2018-02-17T16:29:57.834Z,60.79
2018-02-17T16:32:26.334Z,60.31
2018-02-17T16:34:54.798Z,60.61
2018-02-17T16:37:23.318Z,60.12
2018-02-17T16:39:51.822Z,59.99
2018-02-17T16:42:20.282Z,60.32
2018-02-17T16:44:48.752Z,60.21
2018-02-17T16:47:17.269Z,59.88
2018-02-17T16:49:45.748Z,60.07
2018-02-17T16:52:14.305Z,60.11
2018-02-17T16:54:42.787Z,60.01
2018-02-17T16:57:11.300Z,60.12
2018-02-17T16:59:39.762Z,61.09
2018-02-17T17:02:08.274Z,61.39
2018-02-17T17:04:36.738Z,61.18
2018-02-17T17:07:05.220Z,61.33
2018-02-17T17:09:33.722Z,62.58
2018-02-17T17:12:02.242Z,61.93
2018-02-17T17:14:30.734Z,61.92
2018-02-17T17:16:59.202Z,61.31
2018-02-17T17:19:27.702Z,62.17
2018-02-17T17:21:56.171Z,61.74
2018-02-17T17:24:24.689Z,61.47
2018-02-17T17:26:53.214Z,63.89
2018-02-17T17:29:21.746Z,62.90
2018-02-17T17:31:50.219Z,62.57
2018-02-17T17:34:18.694Z,62.72
2018-02-17T17:36:47.212Z,65.34
2018-02-17T17:39:15.724Z,62.85
2018-02-17T17:41:44.222Z,63.11
2018-02-17T17:44:12.742Z,62.86
2018-02-17T17:46:41.214Z,63.57
2018-02-17T17:49:09.720Z,63.13
2018-02-17T17:51:38.202Z,65.49
2018-02-17T17:54:06.650Z,64.34
2018-02-17T17:56:35.167Z,63.53
2018-02-17T17:59:03.630Z,63.39
2018-02-17T18:01:32.162Z,63.17
2018-02-17T18:04:00.625Z,63.25
2018-02-17T18:06:29.129Z,63.17
2018-02-17T18:08:57.659Z,63.61
2018-02-17T18:11:26.135Z,63.46
2018-02-17T18:13:54.634Z,63.24
2018-02-17T18:16:23.106Z,62.97
2018-02-17T18:18:51.607Z,63.03
2018-02-17T18:21:20.135Z,63.13
2018-02-17T18:23:48.625Z,64.11
2018-02-17T18:26:17.095Z,65.93
2018-02-17T18:28:45.598Z,65.10
2018-02-17T18:31:14.047Z,67.00
2018-02-17T18:33:42.570Z,65.12
2018-02-17T18:36:11.052Z,65.77
2018-02-17T18:38:39.590Z,67.72
2018-02-17T18:41:08.062Z,70.60
2018-02-17T18:43:36.582Z,68.41
2018-02-17T18:46:05.055Z,70.26
2018-02-17T18:48:33.568Z,70.55
2018-02-17T18:51:02.084Z,71.51
2018-02-17T18:53:30.586Z,71.85
2018-02-17T18:55:59.051Z,70.45
2018-02-17T18:58:27.557Z,72.37
2018-02-17T19:00:56.024Z,71.16
2018-02-17T19:03:24.520Z,69.68
2018-02-17T19:05:53.036Z,69.51
2018-02-17T19:08:21.503Z,68.17
2018-02-17T19:10:50.032Z,67.53
2018-02-17T19:13:18.513Z,67.06
2018-02-17T19:15:47.015Z,67.48
2018-02-17T19:18:15.492Z,66.95
2018-02-17T19:20:43.994Z,66.56
2018-02-17T19:23:12.462Z,66.41
2018-02-17T19:25:40.972Z,66.27
2018-02-17T19:28:09.479Z,66.19
2018-02-17T19:30:37.978Z,66.28
2018-02-17T19:33:06.474Z,66.63
2018-02-17T19:35:34.944Z,66.26
2018-02-17T19:38:03.442Z,66.39
2018-02-17T19:40:32.785Z,67.95
2018-02-17T19:43:01.291Z,67.84
2018-02-17T19:45:29.768Z,67.11
2018-02-17T19:47:58.283Z,66.80
2018-02-17T19:50:26.766Z,66.79
2018-02-17T19:52:55.231Z,66.26
2018-02-17T19:55:23.754Z,66.18
2018-02-17T19:57:52.240Z,66.19
2018-02-17T20:00:20.742Z,66.36
2018-02-17T20:02:49.206Z,66.47
2018-02-17T20:05:17.709Z,66.52
2018-02-17T20:07:46.206Z,66.30
2018-02-17T20:10:14.702Z,66.25
2018-02-17T20:12:43.213Z,66.19
2018-02-17T20:15:11.721Z,67.60
2018-02-17T20:17:40.271Z,66.16
2018-02-17T20:20:08.736Z,66.19
2018-02-17T20:22:37.220Z,67.06
2018-02-17T20:25:05.732Z,66.37
2018-02-17T20:27:34.198Z,66.42
2018-02-17T20:30:02.707Z,66.28
2018-02-17T20:32:31.215Z,66.25
2018-02-17T20:34:59.738Z,66.11
2018-02-17T20:37:28.238Z,66.79
2018-02-17T20:39:56.724Z,66.37
2018-02-17T20:42:25.246Z,66.30
2018-02-17T20:44:53.691Z,66.29
2018-02-17T20:47:22.200Z,66.30
2018-02-17T20:49:50.680Z,66.12
2018-02-17T20:52:19.178Z,66.16
2018-02-17T20:54:47.690Z,66.04
2018-02-17T20:57:16.197Z,67.22
2018-02-17T20:59:44.700Z,66.27
2018-02-17T21:02:13.174Z,66.09
2018-02-17T21:04:41.701Z,66.21
2018-02-17T21:07:10.158Z,65.97
2018-02-17T21:09:38.666Z,66.40
2018-02-17T21:12:07.133Z,66.09
2018-02-17T21:14:35.641Z,66.35
2018-02-17T21:17:04.122Z,66.73
2018-02-17T21:19:32.594Z,66.87
2018-02-17T21:22:01.066Z,66.39
2018-02-17T21:24:29.534Z,66.39
2018-02-17T21:26:58.030Z,66.57
2018-02-17T21:29:26.506Z,66.78
2018-02-17T21:31:55.002Z,66.61
2018-02-17T21:34:23.525Z,66.37
2018-02-17T21:36:52.033Z,66.40
2018-02-17T21:39:20.538Z,66.56
2018-02-17T21:41:49.006Z,66.89
2018-02-17T21:44:17.510Z,68.84
2018-02-17T21:46:45.970Z,69.77
2018-02-17T21:49:14.504Z,68.67
2018-02-17T21:51:42.970Z,68.19
2018-02-17T21:54:11.467Z,67.82
2018-02-17T21:56:39.970Z,67.42
2018-02-17T21:59:08.477Z,68.03
2018-02-17T22:01:36.967Z,67.40
2018-02-17T22:04:05.465Z,67.30
2018-02-17T22:06:34.019Z,66.80
2018-02-17T22:09:02.538Z,70.31
2018-02-17T22:11:31.042Z,67.82
2018-02-17T22:13:59.546Z,72.79
2018-02-17T22:16:28.024Z,69.76
2018-02-17T22:18:56.531Z,68.79
2018-02-17T22:21:25.002Z,69.38
2018-02-17T22:23:53.462Z,68.35
2018-02-17T22:26:21.962Z,68.78
2018-02-17T22:28:50.427Z,69.05
2018-02-17T22:31:18.938Z,68.42
2018-02-17T22:33:47.453Z,68.26
2018-02-17T22:36:15.929Z,68.85
2018-02-17T22:38:44.442Z,67.93
2018-02-17T22:41:12.920Z,67.89
2018-02-17T22:43:41.437Z,67.88
2018-02-17T22:46:09.901Z,67.69
2018-02-17T22:48:38.410Z,68.33
2018-02-17T22:51:06.906Z,67.86
2018-02-17T22:53:35.383Z,69.15
2018-02-17T22:56:03.877Z,67.95
2018-02-17T22:58:32.366Z,67.93
2018-02-17T23:01:00.875Z,68.07
2018-02-17T23:03:29.341Z,67.97
2018-02-17T23:05:57.858Z,68.15
2018-02-17T23:08:26.339Z,67.54
2018-02-17T23:10:54.820Z,69.18
2018-02-17T23:13:23.327Z,68.94
2018-02-17T23:15:51.809Z,69.62
2018-02-17T23:18:20.315Z,68.87
2018-02-17T23:20:48.821Z,68.40
2018-02-17T23:23:17.323Z,68.02
2018-02-17T23:25:45.861Z,67.81
2018-02-17T23:28:14.414Z,68.60
2018-02-17T23:30:42.883Z,68.02
2018-02-17T23:33:11.361Z,67.66
2018-02-17T23:35:39.873Z,67.76
2018-02-17T23:38:08.335Z,68.74
2018-02-17T23:40:36.909Z,67.92
2018-02-17T23:43:05.411Z,67.59
2018-02-17T23:45:33.874Z,67.47
2018-02-17T23:48:02.338Z,67.14
2018-02-17T23:50:30.846Z,67.66
2018-02-17T23:52:59.311Z,67.55
2018-02-17T23:55:27.810Z,67.11
2018-02-17T23:57:56.270Z,67.38
